createdAt,value
2023-05-07T00:00:26.889Z,2.30
2023-05-07T00:01:36.153Z,2.23
2023-05-07T00:02:59.515Z,2.37
2023-05-07T00:04:02.714Z,2.70
2023-05-07T00:05:06.990Z,2.27
2023-05-07T00:06:11.278Z,2.47
2023-05-07T00:07:15.047Z,2.43
2023-05-07T00:08:17.305Z,2.70
2023-05-07T00:09:20.652Z,1.93
2023-05-07T00:10:23.284Z,2.40
2023-05-07T00:11:37.317Z,2.73
2023-05-07T00:12:40.737Z,2.57
2023-05-07T00:13:44.022Z,2.97
2023-05-07T00:14:46.603Z,2.67
2023-05-07T00:15:49.979Z,2.73
2023-05-07T00:16:52.440Z,2.70
2023-05-07T00:17:56.587Z,3.10
2023-05-07T00:18:59.226Z,2.43
2023-05-07T00:20:02.530Z,2.70
2023-05-07T00:21:05.418Z,2.60
2023-05-07T00:22:11.437Z,3.10
2023-05-07T00:23:14.252Z,2.90
2023-05-07T00:24:18.089Z,2.60
2023-05-07T00:25:20.933Z,2.93
2023-05-07T00:26:24.562Z,3.27
2023-05-07T00:27:27.081Z,3.20
2023-05-07T00:28:30.377Z,3.20
2023-05-07T00:29:33.167Z,2.90
2023-05-07T00:30:36.565Z,3.33
2023-05-07T00:31:38.997Z,3.37
2023-05-07T00:32:42.422Z,3.20
2023-05-07T00:33:44.831Z,3.20
2023-05-07T00:34:48.144Z,3.30
2023-05-07T00:35:50.486Z,3.27
2023-05-07T00:36:54.257Z,3.40
2023-05-07T00:37:58.125Z,2.90
2023-05-07T00:39:04.490Z,3.90
2023-05-07T00:40:08.932Z,2.90
2023-05-07T00:41:12.455Z,3.20
2023-05-07T00:42:16.149Z,3.00
2023-05-07T00:43:19.530Z,3.03
2023-05-07T00:44:22.346Z,3.10
2023-05-07T00:45:28.236Z,3.13
2023-05-07T00:46:32.646Z,2.80
2023-05-07T00:47:36.139Z,3.07
2023-05-07T00:48:38.560Z,2.93
2023-05-07T00:49:45.136Z,2.77
2023-05-07T00:50:48.249Z,2.93
2023-05-07T00:51:52.684Z,2.90
2023-05-07T00:52:57.397Z,2.50
2023-05-07T00:54:02.160Z,2.80
2023-05-07T00:55:08.970Z,2.77
2023-05-07T00:56:12.321Z,2.80
2023-05-07T00:57:16.871Z,2.60
2023-05-07T00:58:19.277Z,2.60
2023-05-07T00:59:22.585Z,3.00
2023-05-07T01:00:26.773Z,3.30
2023-05-07T01:01:31.999Z,2.70
2023-05-07T01:02:34.562Z,2.63
2023-05-07T01:03:38.450Z,3.10
2023-05-07T01:04:41.563Z,2.73
2023-05-07T01:05:47.527Z,2.53
2023-05-07T01:06:51.081Z,3.00
2023-05-07T01:07:57.229Z,2.80
2023-05-07T01:09:02.324Z,2.80
2023-05-07T01:10:06.718Z,3.23
2023-05-07T01:11:10.152Z,3.40
2023-05-07T01:12:15.266Z,3.30
2023-05-07T01:13:17.947Z,2.90
2023-05-07T01:14:22.608Z,3.17
2023-05-07T01:15:25.315Z,3.27
2023-05-07T01:16:28.999Z,2.97
2023-05-07T01:17:34.948Z,2.83
2023-05-07T01:18:38.350Z,2.80
2023-05-07T01:19:40.782Z,3.10
2023-05-07T01:20:45.125Z,3.23
2023-05-07T01:21:49.355Z,3.10
2023-05-07T01:22:54.745Z,2.97
2023-05-07T01:23:58.444Z,2.87
2023-05-07T01:25:02.867Z,3.43
2023-05-07T01:26:05.976Z,3.30
2023-05-07T01:27:09.487Z,3.20
2023-05-07T01:28:12.264Z,3.30
2023-05-07T01:29:15.728Z,3.67
2023-05-07T01:30:19.966Z,3.73
2023-05-07T01:31:24.388Z,4.13
2023-05-07T01:32:34.188Z,3.20
2023-05-07T01:33:40.611Z,3.40
2023-05-07T01:34:44.504Z,3.57
2023-05-07T01:35:49.971Z,3.47
2023-05-07T01:36:53.627Z,4.67
2023-05-07T01:37:59.303Z,3.93
2023-05-07T01:39:03.327Z,3.50
2023-05-07T01:40:08.757Z,3.90
2023-05-07T01:41:13.018Z,3.20
2023-05-07T01:42:16.341Z,3.30
2023-05-07T01:43:19.027Z,3.40
2023-05-07T01:44:22.874Z,3.40
2023-05-07T01:45:26.905Z,4.63
2023-05-07T01:46:31.032Z,3.60
2023-05-07T01:47:34.864Z,3.73
2023-05-07T01:48:39.479Z,3.90
2023-05-07T01:49:43.144Z,3.50
2023-05-07T01:50:46.856Z,3.27
2023-05-07T01:51:49.809Z,3.90
2023-05-07T01:52:53.700Z,3.97
2023-05-07T01:53:57.786Z,3.27
2023-05-07T01:55:01.147Z,3.30
2023-05-07T01:56:03.814Z,3.53
2023-05-07T01:57:07.316Z,4.03
2023-05-07T01:58:09.727Z,3.33
2023-05-07T01:59:15.098Z,3.50
2023-05-07T02:00:18.632Z,3.57
2023-05-07T02:01:22.505Z,3.50
2023-05-07T02:02:26.550Z,3.50
2023-05-07T02:03:29.086Z,3.33
2023-05-07T02:04:32.970Z,3.40
2023-05-07T02:05:35.608Z,3.47
2023-05-07T02:06:39.178Z,3.17
2023-05-07T02:07:41.964Z,3.43
2023-05-07T02:08:45.429Z,3.80
2023-05-07T07:23:52.846Z,2.20
2023-05-07T07:24:55.365Z,2.50
2023-05-07T07:25:58.852Z,2.90
2023-05-07T07:27:02.302Z,2.73
2023-05-07T07:28:05.745Z,2.13
2023-05-07T07:29:08.088Z,2.47
2023-05-07T07:30:12.041Z,2.40
2023-05-07T07:31:15.041Z,2.50
2023-05-07T07:32:18.460Z,2.83
2023-05-07T07:33:20.985Z,2.23
2023-05-07T07:34:24.463Z,2.57
2023-05-07T07:35:27.082Z,3.20
2023-05-07T07:36:39.051Z,2.27
2023-05-07T07:37:50.969Z,2.27
2023-05-07T07:38:56.017Z,2.40
2023-05-07T07:39:59.442Z,2.50
2023-05-07T07:41:01.879Z,2.43
2023-05-07T07:42:05.390Z,2.30
2023-05-07T07:43:07.885Z,2.17
2023-05-07T07:44:15.967Z,2.57
2023-05-07T07:45:20.113Z,2.40
2023-05-07T07:46:22.582Z,2.80
2023-05-07T07:47:26.312Z,2.43
2023-05-07T07:48:28.864Z,3.63
2023-05-07T07:49:32.237Z,2.90
2023-05-07T07:50:44.557Z,2.60
2023-05-07T07:51:49.188Z,2.20
2023-05-07T07:52:52.479Z,2.50
2023-05-07T07:53:59.578Z,2.33
2023-05-07T07:55:02.299Z,2.10
2023-05-07T07:56:06.261Z,2.37
2023-05-07T07:57:08.694Z,2.03
2023-05-07T07:58:12.040Z,2.17
2023-05-07T07:59:19.274Z,2.47
2023-05-07T08:00:22.924Z,2.53
2023-05-07T08:01:36.549Z,1.80
2023-05-07T08:02:39.069Z,2.50
2023-05-07T08:03:42.665Z,2.07
2023-05-07T08:04:45.633Z,2.10
2023-05-07T08:05:50.787Z,2.17
2023-05-07T08:06:55.983Z,2.50
2023-05-07T08:07:59.658Z,2.27
2023-05-07T08:09:04.754Z,1.80
2023-05-07T08:10:08.091Z,1.90
2023-05-07T08:11:12.057Z,2.40
2023-05-07T08:12:14.682Z,2.50
2023-05-07T08:13:18.172Z,2.23
2023-05-07T08:14:20.709Z,2.10
2023-05-07T08:15:24.563Z,2.10
2023-05-07T08:16:27.119Z,1.93
2023-05-07T08:17:30.791Z,1.90
2023-05-07T08:18:33.209Z,2.07
2023-05-07T08:19:36.504Z,2.17
2023-05-07T08:20:41.180Z,1.80
2023-05-07T08:21:44.525Z,1.77
2023-05-07T08:22:47.009Z,1.80
2023-05-07T08:23:50.586Z,1.60
2023-05-07T08:24:54.784Z,2.50
2023-05-07T08:25:58.689Z,2.43
2023-05-07T08:27:01.191Z,2.00
2023-05-07T08:28:05.587Z,2.07
2023-05-07T08:29:08.994Z,1.73
2023-05-07T08:30:13.602Z,1.90
2023-05-07T08:31:17.163Z,1.77
2023-05-07T08:32:19.764Z,1.60
2023-05-07T08:33:24.683Z,1.50
2023-05-07T08:34:28.204Z,1.87
2023-05-07T08:35:31.914Z,1.93
2023-05-07T08:36:35.568Z,1.93
2023-05-07T08:37:40.355Z,1.60
2023-05-07T08:38:46.833Z,1.80
2023-05-07T08:39:50.455Z,1.73
2023-05-07T08:40:55.464Z,1.40
2023-05-07T08:42:03.297Z,1.63
2023-05-07T08:43:07.680Z,1.90
2023-05-07T08:44:15.160Z,1.90
2023-05-07T08:45:20.246Z,1.70
2023-05-07T08:46:24.660Z,1.57
2023-05-07T08:47:34.478Z,2.10
2023-05-07T08:48:40.858Z,2.20
2023-05-07T08:49:44.418Z,2.00
2023-05-07T08:50:50.052Z,2.20
2023-05-07T08:51:54.918Z,1.80
2023-05-07T08:52:59.359Z,1.80
2023-05-07T08:54:04.363Z,1.60
2023-05-07T08:55:10.477Z,1.57
2023-05-07T08:56:16.312Z,1.80
2023-05-07T08:57:21.008Z,2.00
2023-05-07T08:58:26.515Z,1.60
2023-05-07T08:59:32.730Z,1.93
2023-05-07T09:00:37.148Z,2.03
2023-05-07T09:01:43.146Z,1.70
2023-05-07T09:02:46.250Z,1.70
2023-05-07T09:03:50.169Z,2.00
2023-05-07T09:04:54.630Z,2.40
2023-05-07T09:05:58.037Z,1.73
2023-05-07T09:07:06.542Z,1.80
2023-05-07T09:08:17.062Z,1.50
2023-05-07T09:09:19.823Z,2.13
2023-05-07T09:10:26.872Z,1.60
2023-05-07T09:11:32.242Z,1.50
2023-05-07T09:12:36.357Z,1.70
2023-05-07T09:13:40.170Z,2.13
2023-05-07T09:14:42.722Z,1.80
2023-05-07T09:15:46.407Z,1.90
2023-05-07T09:16:54.824Z,1.77
2023-05-07T09:18:02.601Z,1.50
2023-05-07T09:19:06.076Z,2.07
2023-05-07T09:20:11.000Z,1.60
2023-05-07T09:21:17.921Z,1.80
2023-05-07T09:22:21.404Z,1.60
2023-05-07T09:23:24.753Z,1.80
2023-05-07T09:24:29.572Z,1.67
2023-05-07T09:25:34.577Z,1.50
2023-05-07T09:26:39.628Z,2.20
2023-05-07T09:27:44.115Z,1.50
2023-05-07T09:28:48.807Z,1.53
2023-05-07T09:29:51.599Z,1.80
2023-05-07T09:30:54.972Z,1.37
2023-05-07T09:31:57.437Z,1.73
2023-05-07T09:33:02.587Z,1.40
2023-05-07T09:34:06.106Z,1.80
2023-05-07T09:35:17.804Z,1.80
2023-05-07T09:36:20.369Z,1.80
2023-05-07T09:37:24.100Z,2.10
2023-05-07T09:38:28.268Z,1.97
2023-05-07T09:39:41.988Z,1.70
2023-05-07T09:40:44.445Z,1.67
2023-05-07T09:41:52.430Z,1.43
2023-05-07T09:42:56.152Z,2.00
2023-05-07T09:44:01.463Z,2.00
2023-05-07T09:45:06.665Z,1.90
2023-05-07T09:46:14.809Z,2.10
2023-05-07T09:47:21.483Z,1.73
2023-05-07T09:48:24.505Z,2.17
2023-05-07T09:49:33.181Z,1.90
2023-05-07T09:50:39.113Z,2.27
2023-05-07T09:51:49.128Z,2.07
2023-05-07T09:52:52.572Z,2.20
2023-05-07T09:53:55.330Z,2.20
2023-05-07T09:55:01.872Z,2.17
2023-05-07T09:56:05.456Z,2.43
2023-05-07T09:57:13.740Z,2.30
2023-05-07T09:58:17.566Z,1.87
2023-05-07T09:59:22.587Z,2.23
2023-05-07T10:00:27.966Z,2.00
2023-05-07T10:01:35.266Z,2.20
2023-05-07T10:02:38.714Z,1.97
2023-05-07T10:03:44.187Z,2.00
2023-05-07T10:04:47.557Z,2.00
2023-05-07T10:05:52.593Z,2.20
2023-05-07T10:06:57.707Z,2.00
2023-05-07T10:08:03.959Z,2.00
2023-05-07T10:09:09.202Z,2.10
2023-05-07T10:10:12.444Z,2.30
2023-05-07T10:11:17.418Z,2.10
2023-05-07T10:12:22.448Z,2.13
2023-05-07T10:13:26.890Z,2.77
2023-05-07T10:14:30.964Z,2.40
2023-05-07T10:15:33.720Z,2.67
2023-05-07T10:16:38.915Z,2.73
2023-05-07T10:17:42.512Z,2.57
2023-05-07T10:18:46.676Z,2.20
2023-05-07T10:19:50.093Z,2.50
2023-05-07T10:20:55.166Z,2.80
2023-05-07T10:22:04.430Z,2.53
2023-05-07T10:23:08.551Z,2.43
2023-05-07T10:24:18.409Z,2.37
2023-05-07T10:25:24.662Z,2.10
2023-05-07T10:26:31.107Z,2.50
2023-05-07T10:27:36.147Z,2.03
2023-05-07T10:28:42.189Z,2.20
2023-05-07T10:29:55.251Z,2.23
2023-05-07T10:31:10.266Z,2.20
2023-05-07T10:32:27.832Z,2.27
2023-05-07T10:33:33.287Z,2.50
2023-05-07T10:34:38.801Z,2.67
2023-05-07T10:35:45.102Z,2.50
2023-05-07T10:36:49.223Z,2.73
2023-05-07T10:37:53.262Z,2.47
2023-05-07T10:38:57.231Z,2.67
2023-05-07T10:40:00.980Z,2.10
2023-05-07T10:41:06.688Z,2.20
2023-05-07T10:42:11.052Z,2.13
2023-05-07T10:43:15.795Z,2.53
2023-05-07T10:44:29.689Z,2.17
2023-05-07T10:45:34.095Z,2.50
2023-05-07T10:46:36.777Z,2.70
2023-05-07T10:49:22.814Z,2.70
2023-05-07T10:50:27.895Z,2.10
2023-05-07T10:51:32.315Z,1.83
2023-05-07T10:52:36.818Z,2.60
2023-05-07T10:53:39.213Z,2.33
2023-05-07T10:54:43.439Z,2.20
2023-05-07T10:55:47.686Z,2.57
2023-05-07T10:56:52.193Z,2.50
2023-05-07T10:57:55.758Z,2.03
2023-05-07T10:59:43.071Z,2.13
2023-05-07T11:00:45.828Z,2.10
2023-05-07T11:01:57.316Z,1.77
2023-05-07T11:03:08.282Z,2.07
2023-05-07T11:04:16.856Z,2.10
2023-05-07T11:05:22.792Z,2.20
2023-05-07T11:06:26.706Z,1.90
2023-05-07T11:07:31.193Z,1.97
2023-05-07T11:08:55.411Z,1.70
2023-05-07T11:10:02.163Z,1.87
2023-05-07T11:11:05.940Z,1.70
2023-05-07T11:12:08.744Z,1.80
2023-05-07T11:13:12.680Z,1.93
2023-05-07T11:14:46.917Z,1.93
2023-05-07T11:15:50.811Z,1.70
2023-05-07T11:17:03.910Z,2.03
2023-05-07T11:18:08.164Z,1.47
2023-05-07T11:19:12.711Z,1.67
2023-05-07T11:20:16.599Z,1.60
2023-05-07T11:21:39.936Z,1.63
2023-05-07T11:22:42.589Z,1.90
2023-05-07T11:24:02.282Z,1.70
2023-05-07T11:25:05.872Z,1.70
2023-05-07T11:26:11.095Z,1.70
2023-05-07T11:27:14.990Z,1.80
2023-05-07T11:28:18.556Z,1.60
2023-05-07T11:29:24.593Z,1.80
2023-05-07T11:30:27.529Z,1.50
2023-05-07T11:31:31.993Z,1.50
2023-05-07T11:32:35.685Z,1.80
2023-05-07T11:33:39.691Z,1.23
2023-05-07T11:34:43.784Z,1.90
2023-05-07T11:35:47.978Z,1.63
2023-05-07T11:36:51.467Z,1.60
2023-05-07T11:38:01.321Z,1.33
2023-05-07T11:39:05.030Z,2.03
2023-05-07T11:40:09.194Z,1.50
2023-05-07T11:41:12.695Z,2.27
2023-05-07T11:42:28.211Z,1.70
2023-05-07T11:43:31.067Z,1.63
2023-05-07T11:44:49.308Z,1.53
2023-05-07T11:45:52.787Z,1.63
2023-05-07T11:46:56.216Z,1.87
2023-05-07T11:47:58.711Z,1.63
2023-05-07T11:49:03.321Z,1.67
2023-05-07T11:50:09.334Z,1.83
2023-05-07T11:51:13.610Z,2.20
2023-05-07T11:52:16.278Z,1.50
2023-05-07T11:53:22.214Z,1.40
2023-05-07T11:54:24.653Z,1.57
2023-05-07T11:55:28.580Z,1.60
2023-05-07T11:56:31.926Z,1.60
2023-05-07T11:57:35.095Z,1.67
2023-05-07T11:58:38.924Z,2.00
2023-05-07T11:59:42.504Z,1.80
2023-05-07T12:00:51.833Z,1.77
2023-05-07T12:02:00.294Z,1.63
2023-05-07T12:03:05.605Z,1.27
2023-05-07T12:04:09.427Z,1.90
2023-05-07T12:05:12.350Z,1.80
2023-05-07T12:06:18.057Z,2.17
2023-05-07T12:07:20.545Z,1.60
2023-05-07T12:08:24.459Z,1.60
2023-05-07T12:09:27.595Z,1.50
2023-05-07T12:10:31.010Z,1.73
2023-05-07T12:11:33.582Z,1.80
2023-05-07T12:12:41.621Z,1.97
2023-05-07T12:13:44.493Z,1.47
2023-05-07T12:14:48.446Z,1.40
2023-05-07T12:15:54.667Z,1.53
2023-05-07T12:16:58.553Z,1.70
2023-05-07T12:18:01.411Z,1.63
2023-05-07T12:19:05.105Z,1.50
2023-05-07T12:20:08.952Z,1.60
2023-05-07T12:21:13.094Z,1.70
2023-05-07T12:22:16.997Z,1.40
2023-05-07T12:23:19.920Z,1.73
2023-05-07T12:24:23.324Z,1.53
2023-05-07T12:25:25.864Z,1.60
2023-05-07T12:26:29.574Z,1.60
2023-05-07T12:27:32.262Z,2.00
2023-05-07T12:28:40.853Z,1.77
2023-05-07T12:29:47.335Z,2.00
2023-05-07T12:30:52.934Z,1.60
2023-05-07T12:31:56.814Z,1.80
2023-05-07T12:33:01.432Z,1.77
2023-05-07T12:34:05.216Z,1.97
2023-05-07T12:35:08.397Z,1.70
2023-05-07T12:36:15.627Z,1.77
2023-05-07T12:37:18.284Z,1.83
2023-05-07T12:38:21.670Z,1.50
2023-05-07T12:39:25.127Z,1.50
2023-05-07T12:40:37.394Z,1.50
2023-05-07T12:41:56.312Z,1.60
2023-05-07T12:43:00.930Z,1.80
2023-05-07T12:44:06.934Z,2.20
2023-05-07T12:45:11.141Z,1.50
2023-05-07T12:46:17.729Z,1.80
2023-05-07T12:47:22.247Z,1.93
2023-05-07T12:48:28.134Z,1.80
2023-05-07T12:49:30.848Z,1.60
2023-05-07T12:50:35.334Z,1.70
2023-05-07T12:51:38.897Z,1.53
2023-05-07T12:52:41.726Z,1.57
2023-05-07T12:53:46.468Z,1.90
2023-05-07T12:54:49.519Z,1.60
2023-05-07T12:55:55.487Z,2.33
2023-05-07T12:57:06.844Z,1.93
2023-05-07T12:58:09.476Z,1.40
2023-05-07T12:59:12.896Z,1.70
2023-05-07T13:00:16.204Z,1.57
2023-05-07T13:01:31.137Z,1.90
2023-05-07T13:02:56.567Z,1.77
2023-05-07T13:04:03.924Z,1.70
2023-05-07T13:05:07.435Z,1.80
2023-05-07T13:06:13.341Z,1.80
2023-05-07T13:07:15.880Z,1.50
2023-05-07T13:08:35.365Z,1.50
2023-05-07T13:09:40.335Z,1.77
2023-05-07T13:10:43.801Z,1.77
2023-05-07T13:11:47.167Z,1.93
2023-05-07T13:12:49.626Z,2.73
2023-05-07T13:13:53.104Z,1.80
2023-05-07T13:14:55.615Z,1.87
2023-05-07T13:15:59.187Z,1.87
2023-05-07T13:17:01.633Z,1.60
2023-05-07T13:18:06.529Z,1.53
2023-05-07T13:19:11.312Z,1.70
2023-05-07T13:20:14.089Z,2.00
2023-05-07T13:21:17.880Z,1.60
2023-05-07T13:22:20.895Z,1.80
2023-05-07T13:23:24.484Z,1.73
2023-05-07T13:24:26.890Z,2.37
2023-05-07T13:25:30.282Z,1.50
2023-05-07T13:26:33.345Z,1.70
2023-05-07T13:27:38.079Z,1.77
2023-05-07T13:28:41.597Z,1.80
2023-05-07T13:29:44.004Z,1.77
2023-05-07T13:30:47.307Z,1.80
2023-05-07T13:31:50.502Z,1.50
2023-05-07T13:32:57.677Z,1.50
2023-05-07T13:34:02.412Z,1.47
2023-05-07T13:35:05.731Z,1.77
2023-05-07T13:36:09.497Z,1.80
2023-05-07T13:37:12.699Z,1.70
2023-05-07T13:38:17.255Z,2.00
2023-05-07T13:39:20.120Z,1.50
2023-05-07T13:40:23.894Z,1.70
2023-05-07T13:41:26.300Z,1.70
2023-05-07T13:42:30.282Z,1.80
2023-05-07T13:43:34.683Z,1.70
2023-05-07T13:44:37.073Z,1.63
2023-05-07T13:45:40.442Z,2.10
2023-05-07T13:46:43.452Z,1.83
2023-05-07T13:47:48.504Z,1.80
2023-05-07T13:48:52.207Z,2.10
2023-05-07T13:49:57.134Z,1.80
2023-05-07T13:51:00.807Z,1.80
2023-05-07T13:52:03.411Z,1.77
2023-05-07T13:53:07.015Z,1.70
2023-05-07T13:54:09.437Z,1.50
2023-05-07T13:55:13.585Z,2.03
2023-05-07T13:56:16.302Z,1.87
2023-05-07T13:57:19.723Z,1.80
2023-05-07T13:58:22.880Z,1.67
2023-05-07T13:59:26.223Z,2.10
2023-05-07T14:00:30.590Z,2.07
2023-05-07T14:01:36.040Z,1.87
2023-05-07T14:02:39.610Z,1.90
2023-05-07T14:03:43.319Z,1.47
2023-05-07T14:04:46.968Z,1.73
2023-05-07T14:05:51.742Z,2.20
2023-05-07T14:06:54.148Z,1.63
2023-05-07T14:07:59.615Z,1.87
2023-05-07T14:09:03.413Z,1.80
2023-05-07T14:10:07.880Z,1.80
2023-05-07T14:11:10.448Z,1.90
2023-05-07T14:12:13.865Z,1.53
2023-05-07T14:13:16.549Z,1.70
2023-05-07T14:14:20.234Z,1.70
2023-05-07T14:15:22.836Z,2.10
2023-05-07T14:16:26.323Z,1.60
2023-05-07T14:17:28.834Z,1.70
2023-05-07T14:18:32.361Z,1.90
2023-05-07T14:19:36.632Z,1.53
2023-05-07T14:20:39.075Z,1.97
2023-05-07T14:21:43.739Z,1.67
2023-05-07T14:22:47.354Z,1.70
2023-05-07T14:23:49.844Z,2.00
2023-05-07T14:25:05.918Z,2.00
2023-05-07T14:26:09.526Z,1.97
2023-05-07T14:27:13.177Z,1.80
2023-05-07T14:28:15.709Z,1.73
2023-05-07T14:29:23.798Z,1.70
2023-05-07T14:30:27.725Z,1.60
2023-05-07T14:31:31.300Z,2.10
2023-05-07T14:32:34.969Z,1.93
2023-05-07T14:33:39.138Z,2.00
2023-05-07T14:34:45.025Z,1.73
2023-05-07T14:35:49.927Z,1.70
2023-05-07T14:36:54.723Z,1.70
2023-05-07T14:37:58.157Z,1.80
2023-05-07T14:39:00.616Z,1.70
2023-05-07T14:40:04.899Z,1.83
2023-05-07T14:41:07.587Z,1.63
2023-05-07T14:42:11.096Z,1.97
2023-05-07T14:43:13.858Z,1.80
2023-05-07T14:44:17.359Z,1.73
2023-05-07T14:45:19.807Z,1.73
2023-05-07T14:46:25.169Z,1.90
2023-05-07T14:47:28.667Z,1.87
2023-05-07T14:48:31.214Z,1.70
2023-05-07T14:49:34.633Z,1.80
2023-05-07T14:50:37.285Z,1.60
2023-05-07T14:51:41.025Z,2.07
2023-05-07T14:52:44.900Z,2.07
2023-05-07T14:53:48.490Z,2.00
2023-05-07T14:54:50.868Z,1.60
2023-05-07T14:55:55.042Z,2.00
2023-05-07T14:56:58.434Z,1.77
2023-05-07T14:58:01.092Z,1.70
2023-05-07T14:59:05.051Z,2.03
2023-05-07T15:00:10.772Z,2.10
2023-05-07T15:01:15.655Z,2.20
2023-05-07T15:02:21.202Z,2.10
2023-05-07T15:03:24.330Z,1.90
2023-05-07T15:04:27.927Z,1.80
2023-05-07T15:05:30.393Z,1.97
2023-05-07T15:06:34.579Z,1.90
2023-05-07T15:07:37.080Z,1.87
2023-05-07T15:08:41.786Z,1.70
2023-05-07T15:09:45.474Z,2.10
2023-05-07T15:10:48.496Z,1.93
2023-05-07T15:11:51.881Z,1.57
2023-05-07T15:12:54.458Z,1.90
2023-05-07T15:13:58.315Z,2.10
2023-05-07T15:15:01.049Z,1.77
2023-05-07T15:16:04.486Z,1.60
2023-05-07T15:17:07.556Z,1.90
2023-05-07T15:18:10.952Z,1.57
2023-05-07T15:19:18.622Z,1.93
2023-05-07T15:20:25.772Z,2.00
2023-05-07T15:21:41.077Z,1.50
2023-05-07T15:23:16.453Z,1.87
2023-05-07T15:24:25.563Z,2.00
2023-05-07T15:25:32.787Z,1.67
2023-05-07T15:26:37.768Z,1.50
2023-05-07T15:27:51.466Z,1.70
2023-05-07T15:28:57.542Z,1.93
2023-05-07T15:30:00.171Z,2.03
2023-05-07T15:31:03.729Z,2.70
2023-05-07T15:32:08.004Z,1.60
2023-05-07T15:33:10.772Z,2.07
2023-05-07T15:34:16.892Z,1.87
2023-05-07T15:35:22.822Z,1.77
2023-05-07T15:36:27.188Z,1.70
2023-05-07T15:37:29.612Z,2.00
2023-05-07T15:38:33.017Z,1.80
2023-05-07T15:39:36.996Z,1.63
2023-05-07T15:40:42.920Z,1.60
2023-05-07T15:41:45.557Z,1.60
2023-05-07T15:42:49.140Z,1.93
2023-05-07T15:43:53.769Z,1.60
2023-05-07T15:44:57.419Z,1.80
2023-05-07T15:46:01.200Z,1.60
2023-05-07T15:47:04.863Z,1.97
2023-05-07T15:48:07.501Z,1.77
2023-05-07T15:49:11.643Z,1.87
2023-05-07T15:50:14.197Z,2.00
2023-05-07T15:51:17.819Z,1.50
2023-05-07T15:52:21.831Z,1.97
2023-05-07T15:53:25.226Z,1.70
2023-05-07T15:54:27.704Z,1.60
2023-05-07T15:55:32.675Z,1.80
2023-05-07T15:56:35.157Z,1.70
2023-05-07T15:57:40.239Z,2.00
2023-05-07T15:58:42.941Z,1.90
2023-05-07T15:59:46.509Z,1.70
2023-05-07T16:00:49.786Z,2.00
2023-05-07T16:01:54.052Z,2.27
2023-05-07T16:02:56.904Z,1.60
2023-05-07T16:04:01.466Z,1.87
2023-05-07T16:05:08.971Z,1.77
2023-05-07T16:06:13.889Z,1.87
2023-05-07T16:07:16.339Z,1.70
2023-05-07T16:08:19.838Z,1.60
2023-05-07T16:09:22.508Z,1.80
2023-05-07T16:10:27.006Z,1.73
2023-05-07T16:11:33.933Z,2.00
2023-05-07T16:12:37.528Z,1.83
2023-05-07T16:13:40.293Z,1.73
2023-05-07T16:14:43.968Z,1.83
2023-05-07T16:15:46.654Z,2.07
2023-05-07T16:16:50.481Z,1.63
2023-05-07T16:17:58.298Z,1.50
2023-05-07T16:19:02.321Z,2.03
2023-05-07T16:20:06.559Z,1.53
2023-05-07T16:21:13.075Z,1.60
2023-05-07T16:22:16.286Z,2.20
2023-05-07T16:23:19.785Z,1.70
2023-05-07T16:24:23.271Z,1.80
2023-05-07T16:25:28.233Z,2.00
2023-05-07T16:26:32.143Z,1.80
2023-05-07T16:27:35.622Z,1.83
2023-05-07T16:28:38.243Z,1.77
2023-05-07T16:29:41.910Z,1.60
2023-05-07T16:30:45.590Z,1.80
2023-05-07T16:31:48.129Z,1.90
2023-05-07T16:32:52.079Z,1.50
2023-05-07T16:33:54.678Z,1.50
2023-05-07T16:34:58.148Z,1.57
2023-05-07T16:36:00.566Z,1.67
2023-05-07T16:37:05.804Z,1.57
2023-05-07T16:38:11.922Z,1.90
2023-05-07T16:39:15.409Z,1.60
2023-05-07T16:40:18.002Z,2.03
2023-05-07T16:41:23.160Z,2.00
2023-05-07T16:42:27.114Z,2.00
2023-05-07T16:43:30.611Z,1.60
2023-05-07T16:44:33.525Z,1.50
2023-05-07T16:45:36.983Z,1.90
2023-05-07T16:46:39.775Z,1.80
2023-05-07T16:47:43.246Z,1.70
2023-05-07T16:48:45.882Z,1.63
2023-05-07T16:49:50.534Z,1.60
2023-05-07T16:50:52.996Z,1.90
2023-05-07T16:51:56.843Z,1.90
2023-05-07T16:52:59.514Z,1.80
2023-05-07T16:54:03.355Z,1.57
2023-05-07T16:55:06.865Z,1.80
2023-05-07T16:56:10.535Z,1.60
2023-05-07T16:57:13.417Z,2.00
2023-05-07T16:58:18.289Z,1.70
2023-05-07T16:59:21.635Z,1.57
2023-05-07T17:00:27.847Z,2.00
2023-05-07T17:01:39.126Z,1.80
2023-05-07T17:02:47.275Z,1.93
2023-05-07T17:03:50.944Z,1.80
2023-05-07T17:04:53.565Z,1.70
2023-05-07T17:05:57.714Z,1.73
2023-05-07T17:07:00.169Z,1.90
2023-05-07T17:08:03.544Z,1.93
2023-05-07T17:09:07.041Z,1.70
2023-05-07T17:10:10.207Z,1.70
2023-05-07T17:11:13.670Z,1.87
2023-05-07T17:12:16.886Z,1.70
2023-05-07T17:13:21.734Z,1.70
2023-05-07T17:14:24.251Z,1.90
2023-05-07T17:15:27.910Z,1.57
2023-05-07T17:16:30.351Z,1.80
2023-05-07T17:17:34.015Z,1.47
2023-05-07T17:18:37.420Z,1.70
2023-05-07T17:19:40.191Z,2.30
2023-05-07T17:20:43.963Z,2.03
2023-05-07T17:21:46.516Z,2.10
2023-05-07T17:22:49.994Z,1.77
2023-05-07T17:23:52.794Z,1.97
2023-05-07T17:24:56.254Z,1.80
2023-05-07T17:25:58.797Z,1.77
2023-05-07T17:27:02.229Z,1.80
2023-05-07T17:28:04.885Z,1.80
2023-05-07T17:29:09.666Z,1.87
2023-05-07T17:30:13.629Z,1.90
2023-05-07T17:31:18.577Z,2.20
2023-05-07T17:32:21.199Z,1.73
2023-05-07T17:33:25.035Z,1.67
2023-05-07T17:34:29.459Z,1.97
2023-05-07T17:35:32.818Z,2.17
2023-05-07T17:36:36.492Z,1.77
2023-05-07T17:37:40.194Z,1.80
2023-05-07T17:38:42.616Z,1.80
2023-05-07T17:39:46.387Z,1.70
2023-05-07T17:40:49.028Z,1.90
2023-05-07T17:41:52.469Z,2.00
2023-05-07T17:42:56.205Z,2.10
2023-05-07T17:44:00.802Z,1.93
2023-05-07T17:45:05.829Z,1.80
2023-05-07T17:46:08.990Z,2.50
2023-05-07T17:47:14.290Z,2.13
2023-05-07T17:48:17.548Z,2.07
2023-05-07T17:49:21.424Z,2.10
2023-05-07T17:50:23.857Z,2.00
2023-05-07T17:51:36.084Z,1.77
2023-05-07T17:52:46.171Z,2.10
2023-05-07T17:53:48.770Z,1.97
2023-05-07T17:54:52.241Z,2.30
2023-05-07T17:55:54.925Z,1.80
2023-05-07T17:56:58.423Z,1.63
2023-05-07T17:58:02.796Z,2.10
2023-05-07T17:59:06.393Z,2.00
2023-05-07T18:00:11.516Z,1.80
2023-05-07T18:01:16.503Z,1.90
2023-05-07T18:02:19.266Z,2.00
2023-05-07T18:03:24.636Z,2.13
2023-05-07T18:04:28.282Z,1.97
2023-05-07T18:05:31.891Z,2.13
2023-05-07T18:06:35.317Z,2.60
2023-05-07T18:07:37.802Z,2.10
2023-05-07T18:08:41.321Z,2.13
2023-05-07T18:09:43.867Z,2.10
2023-05-07T18:10:47.421Z,1.90
2023-05-07T18:11:49.843Z,2.37
2023-05-07T18:12:53.382Z,1.80
2023-05-07T18:14:02.026Z,1.70
2023-05-07T18:15:07.844Z,2.17
2023-05-07T18:16:11.823Z,1.77
2023-05-07T18:17:15.288Z,2.10
2023-05-07T18:18:18.749Z,2.13
2023-05-07T18:19:22.796Z,1.87
2023-05-07T18:20:26.180Z,2.20
2023-05-07T18:21:28.748Z,2.00
2023-05-07T18:22:32.096Z,1.77
2023-05-07T18:23:36.738Z,1.97
2023-05-07T18:24:40.246Z,1.80
2023-05-07T18:25:42.675Z,1.93
2023-05-07T18:26:46.058Z,1.93
2023-05-07T18:27:49.443Z,2.07
2023-05-07T18:28:51.896Z,2.40
2023-05-07T18:29:56.126Z,2.10
2023-05-07T18:30:58.617Z,1.70
2023-05-07T18:32:03.372Z,1.90
2023-05-07T18:33:08.184Z,1.87
2023-05-07T18:34:11.667Z,1.87
2023-05-07T18:35:14.212Z,1.97
2023-05-07T18:36:18.197Z,2.13
2023-05-07T18:37:22.532Z,2.07
2023-05-07T18:38:26.419Z,2.23
2023-05-07T18:39:29.903Z,2.37
2023-05-07T18:40:32.337Z,2.10
2023-05-07T18:41:36.610Z,2.30
2023-05-07T18:42:39.973Z,2.20
2023-05-07T18:43:42.735Z,2.30
2023-05-07T18:44:46.422Z,2.20
2023-05-07T18:45:49.272Z,2.33
2023-05-07T18:46:52.647Z,2.20
2023-05-07T18:47:56.449Z,1.93
2023-05-07T18:48:59.984Z,2.20
2023-05-07T18:50:02.451Z,2.13
2023-05-07T18:51:05.974Z,2.40
2023-05-07T18:52:09.523Z,2.20
2023-05-07T18:53:11.969Z,2.23
2023-05-07T18:54:15.410Z,2.30
2023-05-07T18:55:18.197Z,2.30
2023-05-07T18:56:21.852Z,2.17
2023-05-07T18:57:24.862Z,1.73
2023-05-07T18:58:28.342Z,2.07
2023-05-07T18:59:30.810Z,2.10
2023-05-07T19:00:34.306Z,2.43
2023-05-07T19:01:37.857Z,2.40
2023-05-07T19:02:41.569Z,2.50
2023-05-07T19:03:46.385Z,2.20
2023-05-07T19:04:49.078Z,2.20
2023-05-07T19:05:52.704Z,2.20
2023-05-07T19:06:56.227Z,2.27
2023-05-07T19:07:58.850Z,2.23
2023-05-07T19:09:02.765Z,2.00
2023-05-07T19:10:06.457Z,2.03
2023-05-07T19:11:09.922Z,2.57
2023-05-07T19:12:12.532Z,2.20
2023-05-07T19:13:16.030Z,2.37
2023-05-07T19:14:19.516Z,1.97
2023-05-07T19:15:23.406Z,2.27
2023-05-07T19:16:26.773Z,2.70
2023-05-07T19:17:29.311Z,2.27
2023-05-07T19:18:33.055Z,2.57
2023-05-07T19:19:38.066Z,2.57
2023-05-07T19:20:40.663Z,2.47
2023-05-07T19:21:44.098Z,2.70
2023-05-07T19:22:47.758Z,2.30
2023-05-07T19:23:54.113Z,2.50
2023-05-07T19:24:57.615Z,2.40
2023-05-07T19:26:00.501Z,2.87
2023-05-07T19:27:04.132Z,2.50
2023-05-07T19:28:07.096Z,2.43
2023-05-07T19:29:17.634Z,2.10
2023-05-07T19:30:21.741Z,2.40
2023-05-07T19:31:27.141Z,2.30
2023-05-07T19:32:30.625Z,2.33
2023-05-07T19:33:33.294Z,2.50
2023-05-07T19:34:38.062Z,2.80
2023-05-07T19:35:41.540Z,2.20